createdAt,value
2023-05-03T00:00:41.619Z,100945.95
2023-05-03T00:03:14.079Z,100942.16
2023-05-03T00:05:45.094Z,100944.57
2023-05-03T00:08:18.348Z,100940.70
2023-05-03T00:10:51.914Z,100945.52
2023-05-03T00:13:22.056Z,100944.63
2023-05-03T00:15:50.828Z,100946.96
2023-05-03T00:18:22.428Z,100946.02
2023-05-03T00:20:53.969Z,100952.15
2023-05-03T00:23:24.330Z,100956.21
2023-05-03T00:25:54.532Z,100953.77
2023-05-03T00:28:26.735Z,100956.14
2023-05-03T00:30:58.404Z,100957.45
2023-05-03T00:33:29.984Z,100959.44
2023-05-03T00:35:59.861Z,100961.55
2023-05-03T00:38:31.879Z,100960.17
2023-05-03T00:41:02.174Z,100959.64
2023-05-03T00:43:32.633Z,100959.70
2023-05-03T00:46:16.133Z,100956.80
2023-05-03T00:48:49.699Z,100953.80
2023-05-03T00:51:20.383Z,100956.02
2023-05-03T00:53:51.847Z,100956.44
2023-05-03T00:56:25.662Z,100964.70
2023-05-03T00:58:55.976Z,100965.79
2023-05-03T01:01:25.619Z,100972.33
2023-05-03T01:03:55.465Z,100973.91
2023-05-03T01:06:28.123Z,100976.85
2023-05-03T01:09:01.299Z,100974.34
2023-05-03T01:11:38.698Z,100974.30
2023-05-03T01:14:16.268Z,100982.86
2023-05-03T01:16:50.399Z,100983.91
2023-05-03T01:19:32.905Z,100982.25
2023-05-03T01:22:16.584Z,100978.16
2023-05-03T01:24:48.612Z,100975.05
2023-05-03T01:27:17.679Z,100978.67
2023-05-03T01:29:49.331Z,100978.77
2023-05-03T01:32:24.195Z,100981.21
2023-05-03T01:35:02.102Z,100987.35
2023-05-03T01:37:32.905Z,100983.30
2023-05-03T01:40:07.692Z,100984.92
2023-05-03T01:42:41.649Z,100991.22
2023-05-03T01:45:12.837Z,100987.70
2023-05-03T01:47:47.546Z,100989.83
2023-05-03T01:50:19.355Z,100992.73
2023-05-03T01:52:52.897Z,100991.52
2023-05-03T01:55:22.100Z,100996.70
2023-05-03T01:57:50.986Z,100998.85
2023-05-03T02:00:22.753Z,100998.57
2023-05-03T02:02:52.480Z,100998.11
2023-05-03T02:05:22.943Z,100999.95
2023-05-03T02:07:53.644Z,101000.36
2023-05-03T02:10:24.477Z,101007.53
2023-05-03T02:12:53.329Z,101005.73
2023-05-03T02:15:23.557Z,101006.67
2023-05-03T02:17:54.580Z,101004.16
2023-05-03T02:20:23.562Z,101006.11
2023-05-03T02:22:52.286Z,101005.33
2023-05-03T02:25:22.334Z,101004.89
2023-05-03T02:27:52.666Z,101007.16
2023-05-03T02:30:21.895Z,101008.55
2023-05-03T02:32:50.901Z,101007.77
2023-05-03T02:35:22.362Z,101006.31
2023-05-03T02:37:52.534Z,101005.23
2023-05-03T02:40:24.257Z,101002.66
2023-05-03T02:42:56.382Z,100999.40
2023-05-03T02:45:28.769Z,101005.55
2023-05-03T02:47:59.838Z,101006.93
2023-05-03T02:50:30.369Z,101003.57
2023-05-03T02:53:00.665Z,101006.73
2023-05-03T02:55:31.093Z,101005.54
2023-05-03T02:58:02.020Z,101006.05
2023-05-03T03:00:33.401Z,101005.38
2023-05-03T03:03:02.152Z,101013.86
2023-05-03T03:05:33.224Z,101018.19
2023-05-03T03:08:02.593Z,101015.77
2023-05-03T03:10:33.777Z,101011.48
2023-05-03T03:13:05.349Z,101012.63
2023-05-03T03:15:38.652Z,101018.20
2023-05-03T03:18:22.635Z,101015.95
2023-05-03T03:20:53.586Z,101022.84
2023-05-03T03:23:23.799Z,101025.40
2023-05-03T03:25:55.535Z,101026.78
2023-05-03T03:28:27.391Z,101032.54
2023-05-03T03:30:58.799Z,101033.33
2023-05-03T03:33:28.636Z,101035.35
2023-05-03T03:35:59.237Z,101034.64
2023-05-03T03:38:34.017Z,101039.56
2023-05-03T03:41:05.527Z,101040.46
2023-05-03T03:43:36.432Z,101042.06
2023-05-03T03:46:06.516Z,101041.80
2023-05-03T03:48:37.779Z,101044.96
2023-05-03T03:51:10.053Z,101043.40
2023-05-03T03:53:41.765Z,101047.66
2023-05-03T03:56:10.615Z,101047.38
2023-05-03T03:58:42.116Z,101047.07
2023-05-03T04:01:13.264Z,101048.66
2023-05-03T04:03:46.565Z,101053.27
2023-05-03T04:06:15.842Z,101054.11
2023-05-03T04:08:47.149Z,101052.60
2023-05-03T04:11:16.935Z,101050.70
2023-05-03T04:13:52.208Z,101052.04
2023-05-03T04:16:22.594Z,101052.81
2023-05-03T04:18:52.386Z,101053.95
2023-05-03T04:21:23.049Z,101058.61
2023-05-03T04:23:52.537Z,101061.27
2023-05-03T04:26:31.844Z,101062.91
2023-05-03T04:29:16.232Z,101063.19
2023-05-03T04:31:46.483Z,101059.69
2023-05-03T04:34:19.040Z,101062.82
2023-05-03T04:36:51.958Z,101060.98
2023-05-03T04:39:22.879Z,101064.93
2023-05-03T04:41:56.937Z,101069.91
2023-05-03T04:44:26.408Z,101074.64
2023-05-03T04:46:57.277Z,101072.45
2023-05-03T04:49:29.728Z,101073.27
2023-05-03T04:52:01.359Z,101073.86
2023-05-03T04:54:32.173Z,101079.19
2023-05-03T04:57:02.579Z,101082.20
2023-05-03T04:59:33.004Z,101082.50
2023-05-03T05:02:03.995Z,101084.48
2023-05-03T05:04:33.995Z,101081.81
2023-05-03T05:07:02.916Z,101083.97
2023-05-03T05:09:33.366Z,101085.15
2023-05-03T05:12:05.564Z,101085.64
2023-05-03T05:14:38.810Z,101089.84
2023-05-03T05:17:09.531Z,101092.33
2023-05-03T05:19:40.641Z,101091.67
2023-05-03T05:22:10.274Z,101097.15
2023-05-03T05:24:54.536Z,101101.88
2023-05-03T05:27:27.061Z,101104.83
2023-05-03T05:29:59.205Z,101105.33
2023-05-03T05:32:28.252Z,101106.98
2023-05-03T05:34:59.467Z,101104.44
2023-05-03T05:37:30.524Z,101108.18
2023-05-03T05:40:07.355Z,101111.52
2023-05-03T05:42:40.306Z,101108.69
2023-05-03T05:45:14.883Z,101104.84
2023-05-03T05:47:48.251Z,101104.00
2023-05-03T05:50:19.370Z,101110.20
2023-05-03T05:52:54.081Z,101111.55
2023-05-03T05:55:25.377Z,101115.85
2023-05-03T05:57:56.922Z,101117.48
2023-05-03T06:00:28.983Z,101119.94
2023-05-03T06:03:00.231Z,101120.44
2023-05-03T06:05:33.314Z,101119.34
2023-05-03T06:08:06.599Z,101124.96
2023-05-03T06:10:36.846Z,101130.11
2023-05-03T06:13:12.480Z,101129.52
2023-05-03T06:15:42.442Z,101132.37
2023-05-03T06:18:12.146Z,101135.11
2023-05-03T06:20:42.322Z,101137.48
2023-05-03T06:23:11.468Z,101142.09
2023-05-03T06:25:42.128Z,101138.69
2023-05-03T06:28:14.312Z,101135.56
2023-05-03T06:31:12.110Z,101135.98
2023-05-03T06:33:43.426Z,101138.84
2023-05-03T06:36:12.912Z,101141.77
2023-05-03T06:38:44.468Z,101146.58
2023-05-03T06:41:13.444Z,101148.95
2023-05-03T06:43:45.918Z,101149.98
2023-05-03T06:46:20.156Z,101148.46
2023-05-03T06:48:53.620Z,101149.74
2023-05-03T06:51:27.978Z,101152.81
2023-05-03T06:54:21.751Z,101151.80
2023-05-03T06:56:52.191Z,101150.88
2023-05-03T06:59:21.174Z,101153.87
2023-05-03T07:01:52.367Z,101153.95
2023-05-03T07:04:21.835Z,101153.73
2023-05-03T07:06:56.322Z,101148.52
2023-05-03T07:11:58.573Z,101152.27
2023-05-03T07:14:27.800Z,101145.89
2023-05-03T07:16:57.114Z,101144.55
2023-05-03T07:19:26.792Z,101144.55
2023-05-03T07:21:58.794Z,101143.94
2023-05-03T07:24:28.083Z,101140.52
2023-05-03T07:26:59.043Z,101136.24
2023-05-03T07:29:29.552Z,101136.78
2023-05-03T07:32:00.722Z,101134.67
2023-05-03T07:34:29.690Z,101136.14
2023-05-03T07:37:00.364Z,101132.96
2023-05-03T07:39:31.496Z,101138.52
2023-05-03T07:42:00.971Z,101137.09
2023-05-03T07:44:34.369Z,101141.79
2023-05-03T07:47:06.174Z,101148.10
2023-05-03T07:49:37.260Z,101143.52
2023-05-03T07:52:08.950Z,101145.20
2023-05-03T07:54:37.967Z,101152.10
2023-05-03T07:57:08.217Z,101148.73
2023-05-03T07:59:39.124Z,101154.20
2023-05-03T08:02:08.727Z,101154.54
2023-05-03T08:04:39.907Z,101154.48
2023-05-03T08:07:10.307Z,101150.91
2023-05-03T08:09:41.316Z,101150.66
2023-05-03T08:12:13.617Z,101152.92
2023-05-03T08:14:43.496Z,101155.23
2023-05-03T08:17:15.389Z,101154.27
2023-05-03T08:19:44.729Z,101149.15
2023-05-03T08:22:14.628Z,101156.66
2023-05-03T08:24:47.304Z,101152.09
2023-05-03T08:27:16.477Z,101144.66
2023-05-03T08:29:47.601Z,101153.96
2023-05-03T08:32:21.239Z,101152.73
2023-05-03T08:34:51.841Z,101151.72
2023-05-03T08:37:23.579Z,101157.38
2023-05-03T08:40:23.060Z,101155.77
2023-05-03T08:43:44.393Z,101156.30
2023-05-03T08:46:14.380Z,101164.05
2023-05-03T08:48:45.321Z,101163.70
2023-05-03T08:51:14.911Z,101152.40
2023-05-03T08:53:46.361Z,101160.43
2023-05-03T08:56:25.622Z,101158.09
2023-05-03T08:58:56.002Z,101160.16
2023-05-03T09:01:29.873Z,101154.27
2023-05-03T09:04:20.223Z,101161.99
2023-05-03T09:06:49.937Z,101162.65
2023-05-03T09:09:33.586Z,101168.96
2023-05-03T09:15:26.133Z,101161.41
2023-05-03T09:18:31.220Z,101170.41
2023-05-03T09:21:01.489Z,101172.60
2023-05-03T09:23:32.152Z,101171.61
2023-05-03T09:26:01.916Z,101163.82
2023-05-03T09:28:41.151Z,101171.64
2023-05-03T09:31:12.779Z,101178.92
2023-05-03T09:33:43.025Z,101172.63
2023-05-03T09:36:15.159Z,101170.55
2023-05-03T09:38:45.387Z,101180.83
2023-05-03T09:41:14.769Z,101173.70
2023-05-03T09:43:55.537Z,101174.77
2023-05-03T09:46:27.647Z,101169.96
2023-05-03T09:48:58.704Z,101168.58
2023-05-03T09:51:28.778Z,101171.09
2023-05-03T09:53:57.645Z,101172.23
2023-05-03T09:56:31.564Z,101168.03
2023-05-03T09:59:01.785Z,101174.90
2023-05-03T10:01:32.899Z,101178.38
2023-05-03T10:04:03.246Z,101181.35
2023-05-03T10:06:37.343Z,101177.70
2023-05-03T10:09:09.166Z,101177.48
2023-05-03T10:11:50.880Z,101175.88
2023-05-03T10:14:20.986Z,101169.43
2023-05-03T10:16:51.403Z,101164.05
2023-05-03T10:19:27.324Z,101170.30
2023-05-03T10:22:09.605Z,101169.67
2023-05-03T10:25:01.072Z,101172.16
2023-05-03T10:27:56.840Z,101170.91
2023-05-03T10:30:35.061Z,101167.55
2023-05-03T10:33:18.526Z,101171.65
2023-05-03T10:35:54.713Z,101175.77
2023-05-03T10:38:25.861Z,101177.30
2023-05-03T10:41:15.079Z,101168.59
2023-05-03T10:43:45.352Z,101171.22
2023-05-03T10:46:44.371Z,101167.36
2023-05-03T10:49:17.816Z,101171.00
2023-05-03T10:51:49.132Z,101170.44
2023-05-03T10:58:40.753Z,101159.92
2023-05-03T11:01:14.491Z,101159.97
2023-05-03T11:03:47.315Z,101164.69
2023-05-03T11:06:36.963Z,101163.30
2023-05-03T11:09:07.433Z,101174.13
2023-05-03T11:11:40.585Z,101172.13
2023-05-03T11:14:10.750Z,101166.34
2023-05-03T11:16:48.366Z,101169.30
2023-05-03T11:19:21.321Z,101162.00
2023-05-03T11:21:57.386Z,101158.34
2023-05-03T11:24:27.647Z,101164.36
2023-05-03T11:27:00.555Z,101173.39
2023-05-03T11:29:42.154Z,101171.68
2023-05-03T11:32:22.249Z,101174.22
2023-05-03T11:34:52.340Z,101171.77
2023-05-03T11:37:21.705Z,101174.50
2023-05-03T11:39:52.205Z,101173.17
2023-05-03T11:42:21.637Z,101177.13
2023-05-03T11:44:54.727Z,101177.80
2023-05-03T11:47:25.018Z,101170.55
2023-05-03T11:49:54.686Z,101167.88
2023-05-03T11:52:25.453Z,101162.67
2023-05-03T11:54:55.027Z,101166.59
2023-05-03T11:57:25.796Z,101165.28
2023-05-03T11:59:56.203Z,101161.88
2023-05-03T12:02:28.155Z,101161.42
2023-05-03T12:04:59.583Z,101167.61
2023-05-03T12:07:33.057Z,101172.10
2023-05-03T12:10:22.996Z,101168.99
2023-05-03T12:13:02.715Z,101170.83
2023-05-03T12:15:43.985Z,101173.16
2023-05-03T12:18:20.612Z,101170.00
2023-05-03T12:21:29.976Z,101168.33
2023-05-03T12:23:46.251Z,101176.87
2023-05-03T12:26:19.055Z,101173.08
2023-05-03T12:28:50.885Z,101172.73
2023-05-03T12:31:22.907Z,101170.98
2023-05-03T12:36:43.920Z,101158.48
2023-05-03T12:39:16.331Z,101162.38
2023-05-03T12:44:23.303Z,101170.27
2023-05-03T12:46:57.409Z,101169.73
2023-05-03T12:49:31.708Z,101174.69
2023-05-03T12:52:35.378Z,101179.80
2023-05-03T12:55:03.009Z,101174.98
2023-05-03T12:57:37.331Z,101169.70
2023-05-03T13:00:14.890Z,101170.89
2023-05-03T13:05:34.320Z,101157.84
2023-05-03T13:08:10.406Z,101174.89
2023-05-03T13:10:42.592Z,101176.07
2023-05-03T13:13:12.111Z,101175.34
2023-05-03T13:15:43.895Z,101177.52
2023-05-03T13:18:14.734Z,101173.27
2023-05-03T13:20:46.217Z,101172.52
2023-05-03T13:23:17.882Z,101170.90
2023-05-03T13:25:47.693Z,101159.48
2023-05-03T13:28:20.883Z,101154.82
2023-05-03T13:30:58.023Z,101157.55
2023-05-03T13:33:29.933Z,101155.63
2023-05-03T13:36:02.576Z,101147.84
2023-05-03T13:38:35.086Z,101150.25
2023-05-03T13:41:09.634Z,101147.45
2023-05-03T13:43:38.755Z,101146.85
2023-05-03T13:46:10.959Z,101147.42
2023-05-03T13:48:42.814Z,101142.52
2023-05-03T13:51:13.852Z,101143.27
2023-05-03T13:53:44.215Z,101141.42
2023-05-03T13:56:41.613Z,101139.00
2023-05-03T13:59:13.824Z,101137.96
2023-05-03T14:01:44.622Z,101139.45
2023-05-03T14:04:14.055Z,101136.43
2023-05-03T14:06:44.244Z,101135.37
2023-05-03T14:09:14.999Z,101134.94
2023-05-03T14:11:47.018Z,101138.27
2023-05-03T14:14:17.163Z,101131.22
2023-05-03T14:16:48.139Z,101131.02
2023-05-03T14:19:19.307Z,101132.52
2023-05-03T14:21:50.323Z,101134.47
2023-05-03T14:24:19.440Z,101135.00
2023-05-03T14:26:49.763Z,101136.30
2023-05-03T14:29:19.583Z,101142.86
2023-05-03T14:31:51.767Z,101143.47
2023-05-03T14:34:22.713Z,101149.64
2023-05-03T14:36:53.002Z,101144.39
2023-05-03T14:39:22.856Z,101138.45
2023-05-03T14:41:51.748Z,101145.98
2023-05-03T14:44:21.561Z,101145.95
2023-05-03T14:46:54.297Z,101139.95
2023-05-03T14:49:23.403Z,101142.23
2023-05-03T14:51:52.683Z,101140.20
2023-05-03T14:54:27.159Z,101143.11
2023-05-03T14:56:56.963Z,101141.73
2023-05-03T14:59:29.348Z,101142.73
2023-05-03T15:01:59.053Z,101135.42
2023-05-03T15:04:29.622Z,101115.98
2023-05-03T15:07:03.346Z,101146.27
2023-05-03T15:09:33.924Z,101151.73
2023-05-03T15:12:07.134Z,101147.26
2023-05-03T15:14:37.591Z,101149.41
2023-05-03T15:17:08.090Z,101150.96
2023-05-03T15:19:37.985Z,101151.73
2023-05-03T15:22:06.946Z,101152.23
2023-05-03T15:24:36.782Z,101155.09
2023-05-03T15:27:08.457Z,101157.68
2023-05-03T15:29:40.026Z,101155.45
2023-05-03T15:32:09.609Z,101155.37
2023-05-03T15:34:41.497Z,101153.45
2023-05-03T15:37:12.676Z,101151.92
2023-05-03T15:39:43.375Z,101147.45
2023-05-03T15:42:21.305Z,101147.77
2023-05-03T15:44:56.347Z,101154.38
2023-05-03T15:47:29.805Z,101155.73
2023-05-03T15:50:10.153Z,101151.95
2023-05-03T15:52:43.115Z,101153.61
2023-05-03T15:55:14.963Z,101154.08
2023-05-03T15:57:47.068Z,101153.34
2023-05-03T16:00:17.686Z,101150.02
2023-05-03T16:02:51.356Z,101146.70
2023-05-03T16:05:25.943Z,101144.92
2023-05-03T16:07:56.447Z,101145.63
2023-05-03T16:10:26.249Z,101146.16
2023-05-03T16:12:55.774Z,101145.04
2023-05-03T16:15:25.874Z,101149.56
2023-05-03T16:17:58.587Z,101151.10
2023-05-03T16:20:30.236Z,101154.64
2023-05-03T16:23:00.347Z,101159.98
2023-05-03T16:25:35.004Z,101161.14
2023-05-03T16:28:06.452Z,101163.34
2023-05-03T16:30:35.463Z,101165.77
2023-05-03T16:33:05.373Z,101162.73
2023-05-03T16:35:35.685Z,101158.17
2023-05-03T16:38:06.887Z,101158.53
2023-05-03T16:41:02.671Z,101157.96
2023-05-03T16:43:35.715Z,101152.21
2023-05-03T16:46:04.916Z,101156.45
2023-05-03T16:48:35.945Z,101156.36
2023-05-03T16:51:06.866Z,101154.29
2023-05-03T16:53:43.541Z,101156.52
2023-05-03T16:56:40.564Z,101157.49
2023-05-03T16:59:11.454Z,101159.31
2023-05-03T17:01:42.798Z,101161.70
2023-05-03T17:04:11.844Z,101163.63
2023-05-03T17:06:41.407Z,101165.44
2023-05-03T17:09:31.904Z,101164.20
2023-05-03T17:12:08.151Z,101163.61
2023-05-03T17:14:39.770Z,101163.06
2023-05-03T17:17:12.815Z,101164.02
2023-05-03T17:19:46.937Z,101164.25
2023-05-03T17:22:16.193Z,101163.11
2023-05-03T17:24:46.653Z,101161.66
2023-05-03T17:27:17.045Z,101164.16
2023-05-03T17:29:47.088Z,101165.50
2023-05-03T17:32:16.250Z,101165.16
2023-05-03T17:34:50.337Z,101165.52
2023-05-03T17:37:23.591Z,101165.35
2023-05-03T17:39:54.112Z,101167.30
2023-05-03T17:42:24.582Z,101167.71
2023-05-03T17:44:55.431Z,101171.83
2023-05-03T17:47:28.768Z,101171.95
2023-05-03T17:50:02.918Z,101172.89
2023-05-03T17:52:34.675Z,101169.91
2023-05-03T17:55:05.427Z,101179.05
2023-05-03T17:57:41.263Z,101181.41
2023-05-03T18:00:16.818Z,101185.79
2023-05-03T18:02:47.123Z,101187.17
2023-05-03T18:05:28.558Z,101186.98
2023-05-03T18:08:33.431Z,101192.52
2023-05-03T18:11:10.153Z,101193.89
2023-05-03T18:13:43.194Z,101189.75
2023-05-03T18:16:17.569Z,101191.27
2023-05-03T18:18:49.779Z,101188.25
2023-05-03T18:21:29.923Z,101189.77
2023-05-03T18:24:01.461Z,101185.95
2023-05-03T18:26:33.580Z,101194.08
2023-05-03T18:29:06.145Z,101197.46
2023-05-03T18:31:37.092Z,101194.30
2023-05-03T18:34:14.375Z,101195.25
2023-05-03T18:36:45.837Z,101200.87
2023-05-03T18:39:16.170Z,101200.02
2023-05-03T18:41:45.783Z,101199.63
2023-05-03T18:44:15.416Z,101205.70
2023-05-03T18:46:47.271Z,101207.11
2023-05-03T18:49:17.344Z,101207.39
2023-05-03T18:51:48.800Z,101206.70
2023-05-03T18:54:23.279Z,101206.94
2023-05-03T18:56:53.862Z,101210.20
2023-05-03T18:59:24.270Z,101207.92
2023-05-03T19:02:01.421Z,101208.80
2023-05-03T19:04:32.903Z,101213.75
2023-05-03T19:07:06.324Z,101214.88
2023-05-03T19:09:41.310Z,101213.33
2023-05-03T19:12:14.942Z,101214.94
2023-05-03T19:14:48.969Z,101217.30
2023-05-03T19:17:21.774Z,101219.80
2023-05-03T19:19:55.775Z,101220.14
2023-05-03T19:22:29.107Z,101226.02
2023-05-03T19:25:00.551Z,101227.28
2023-05-03T19:28:21.562Z,101231.89
2023-05-03T20:12:52.177Z,101230.08
2023-05-03T20:15:22.448Z,101230.38
2023-05-03T20:17:53.997Z,101229.35
2023-05-03T20:20:26.609Z,101231.70
2023-05-03T20:22:56.783Z,101233.77
2023-05-03T20:25:36.144Z,101233.54
2023-05-03T20:28:08.002Z,101232.89
2023-05-03T20:30:40.156Z,101234.20
2023-05-03T20:33:14.997Z,101233.47
2023-05-03T20:35:46.591Z,101233.84
2023-05-03T20:38:15.650Z,101236.66
2023-05-03T20:40:48.546Z,101236.56
2023-05-03T20:43:19.186Z,101233.52
2023-05-03T20:45:53.941Z,101233.83
2023-05-03T20:48:27.418Z,101236.48
2023-05-03T20:51:05.777Z,101233.33
2023-05-03T20:53:36.363Z,101233.31
2023-05-03T20:56:09.239Z,101232.25
2023-05-03T20:58:39.205Z,101233.25
2023-05-03T21:01:10.074Z,101230.80
2023-05-03T21:03:38.877Z,101238.52
2023-05-03T21:06:10.647Z,101239.20
2023-05-03T21:08:40.433Z,101233.75
2023-05-03T21:11:11.335Z,101231.40
2023-05-03T21:13:40.976Z,101230.36
2023-05-03T21:16:12.505Z,101229.31
2023-05-03T21:18:43.299Z,101226.73
2023-05-03T21:21:12.807Z,101226.55
2023-05-03T21:23:41.818Z,101229.80
2023-05-03T21:26:12.679Z,101230.11
2023-05-03T21:28:45.067Z,101230.27
2023-05-03T21:34:52.076Z,101230.61
2023-05-03T21:37:24.024Z,101237.54
2023-05-03T21:40:01.449Z,101235.75
2023-05-03T21:42:50.076Z,101236.48
2023-05-03T21:45:28.229Z,101233.84
2023-05-03T21:47:57.811Z,101237.02
2023-05-03T21:50:29.437Z,101238.15
2023-05-03T21:52:58.926Z,101240.30
2023-05-03T21:55:30.248Z,101239.53
2023-05-03T21:57:59.646Z,101240.39
2023-05-03T22:00:30.411Z,101242.41
2023-05-03T22:03:00.460Z,101244.23
2023-05-03T22:05:31.350Z,101248.46
2023-05-03T22:08:01.759Z,101248.36
2023-05-03T22:10:35.787Z,101248.75
2023-05-03T22:13:07.671Z,101248.50
2023-05-03T22:15:36.631Z,101248.75
2023-05-03T22:18:10.277Z,101248.88
2023-05-03T22:20:40.564Z,101247.61
2023-05-03T22:23:11.191Z,101248.80
2023-05-03T22:25:42.222Z,101246.64
2023-05-03T22:28:13.289Z,101247.91
2023-05-03T22:30:45.465Z,101245.19
2023-05-03T22:33:15.791Z,101245.70
2023-05-03T22:35:47.090Z,101243.84
2023-05-03T22:38:18.113Z,101246.15
2023-05-03T22:40:48.886Z,101250.56
2023-05-03T22:43:20.559Z,101247.14
2023-05-03T22:45:49.510Z,101245.55
2023-05-03T22:48:22.944Z,101245.67
2023-05-03T22:50:55.576Z,101245.70
2023-05-03T22:53:25.940Z,101245.48
2023-05-03T22:55:57.509Z,101242.70
2023-05-03T22:58:32.685Z,101240.71
2023-05-03T23:01:01.847Z,101236.16
2023-05-03T23:03:35.712Z,101238.61
2023-05-03T23:06:06.938Z,101237.39
2023-05-03T23:08:36.253Z,101236.41
2023-05-03T23:11:07.714Z,101233.65
2023-05-03T23:13:37.386Z,101230.25
2023-05-03T23:16:11.398Z,101233.81
2023-05-03T23:18:42.151Z,101229.28
2023-05-03T23:21:14.010Z,101228.92
2023-05-03T23:23:44.982Z,101231.19
2023-05-03T23:26:15.476Z,101224.30
2023-05-03T23:28:45.858Z,101229.46
2023-05-03T23:31:17.290Z,101224.10
2023-05-03T23:33:48.247Z,101223.05
2023-05-03T23:36:18.899Z,101221.13
2023-05-03T23:38:55.539Z,101220.24
2023-05-03T23:41:27.106Z,101220.94
2023-05-03T23:44:01.174Z,101220.74
2023-05-03T23:46:30.529Z,101219.61
2023-05-03T23:49:02.680Z,101216.90
2023-05-03T23:51:34.139Z,101220.97
2023-05-03T23:54:04.103Z,101222.75
2023-05-03T23:56:35.851Z,101221.81
2023-05-03T23:59:06.250Z,101222.77
